createdAt,value
2022-10-11T00:02:48.055Z,20.89
2022-10-11T00:05:50.767Z,20.88
2022-10-11T00:08:53.457Z,20.88
2022-10-11T00:11:56.402Z,20.89
2022-10-11T00:14:59.088Z,20.86
2022-10-11T00:18:05.428Z,20.89
2022-10-11T00:21:09.339Z,20.90
2022-10-11T00:24:12.605Z,20.89
2022-10-11T00:27:15.316Z,20.89
2022-10-11T00:30:19.095Z,20.90
2022-10-11T00:33:24.147Z,20.88
2022-10-11T00:36:26.891Z,20.90
2022-10-11T00:39:29.564Z,20.89
2022-10-11T00:42:32.665Z,20.88
2022-10-11T00:45:53.871Z,20.85
2022-10-11T00:49:02.051Z,20.86
2022-10-11T00:52:07.514Z,20.86
2022-10-11T00:55:13.411Z,20.88
2022-10-11T00:58:16.444Z,20.86
2022-10-11T01:01:19.275Z,20.86
2022-10-11T01:04:23.362Z,20.88
2022-10-11T01:07:28.198Z,20.87
2022-10-11T01:10:30.916Z,20.87
2022-10-11T01:13:41.627Z,20.83
2022-10-11T01:16:50.543Z,20.85
2022-10-11T01:20:16.946Z,20.85
2022-10-11T01:23:27.477Z,20.86
2022-10-11T01:26:40.638Z,20.85
2022-10-11T01:29:47.443Z,20.85
2022-10-11T01:32:55.429Z,20.83
2022-10-11T01:36:05.266Z,20.85
2022-10-11T01:39:11.654Z,20.84
2022-10-11T01:42:14.665Z,20.82
2022-10-11T01:45:18.212Z,20.83
2022-10-11T01:48:22.256Z,20.82
2022-10-11T01:51:26.586Z,20.82
2022-10-11T01:55:07.586Z,20.86
2022-10-11T01:58:09.666Z,20.83
2022-10-11T02:01:21.284Z,20.83
2022-10-11T02:04:30.578Z,20.83
2022-10-11T02:07:37.772Z,20.85
2022-10-11T02:10:43.602Z,20.83
2022-10-11T02:13:48.321Z,20.83
2022-10-11T02:16:54.468Z,20.84
2022-10-11T02:20:00.308Z,20.87
2022-10-11T02:23:06.771Z,20.85
2022-10-11T02:26:10.724Z,20.85
2022-10-11T02:29:15.396Z,20.85
2022-10-11T02:32:18.708Z,20.84
2022-10-11T02:35:25.466Z,20.84
2022-10-11T02:38:31.044Z,20.83
2022-10-11T02:41:37.542Z,20.83
2022-10-11T02:44:43.353Z,20.83
2022-10-11T02:47:46.304Z,20.80
2022-10-11T02:50:50.323Z,20.79
2022-10-11T02:53:52.980Z,20.79
2022-10-11T02:56:55.680Z,20.78
2022-10-11T02:59:58.319Z,20.77
2022-10-11T03:03:01.009Z,20.78
2022-10-11T03:06:05.848Z,20.78
2022-10-11T03:09:08.791Z,20.79
2022-10-11T03:12:11.402Z,20.79
2022-10-11T03:15:14.138Z,20.78
2022-10-11T03:18:16.819Z,20.79
2022-10-11T03:21:20.857Z,20.80
2022-10-11T03:24:23.664Z,20.78
2022-10-11T03:27:26.395Z,20.78
2022-10-11T03:30:29.081Z,20.79
2022-10-11T03:33:31.749Z,20.77
2022-10-11T03:36:35.789Z,20.77
2022-10-11T03:39:38.710Z,20.77
2022-10-11T03:42:41.336Z,20.77
2022-10-11T03:45:44.019Z,20.76
2022-10-11T03:48:46.750Z,20.78
2022-10-11T03:51:50.738Z,20.78
2022-10-11T03:54:53.505Z,20.77
2022-10-11T03:57:56.184Z,20.76
2022-10-11T04:00:58.910Z,20.76
2022-10-11T04:04:01.596Z,20.76
2022-10-11T04:07:05.679Z,20.77
2022-10-11T04:10:08.669Z,20.77
2022-10-11T04:13:11.808Z,20.76
2022-10-11T04:16:14.494Z,20.75
2022-10-11T04:19:17.497Z,20.77
2022-10-11T04:22:21.492Z,20.77
2022-10-11T04:25:24.156Z,20.77
2022-10-11T04:28:26.985Z,20.74
2022-10-11T04:31:29.740Z,20.77
2022-10-11T04:34:32.548Z,20.75
2022-10-11T04:37:36.600Z,20.74
2022-10-11T04:40:39.317Z,20.74
2022-10-11T04:43:41.962Z,20.74
2022-10-11T04:46:44.604Z,20.72
2022-10-11T04:49:47.283Z,20.73
2022-10-11T04:52:51.305Z,20.75
2022-10-11T04:55:58.493Z,20.71
2022-10-11T04:59:01.161Z,20.74
2022-10-11T05:02:03.988Z,20.75
2022-10-11T05:05:07.262Z,20.74
2022-10-11T05:08:11.339Z,20.73
2022-10-11T05:11:16.101Z,20.72
2022-10-11T05:14:19.001Z,20.73
2022-10-11T05:17:22.058Z,20.71
2022-10-11T05:20:24.751Z,20.71
2022-10-11T05:23:28.859Z,20.70
2022-10-11T05:26:31.621Z,20.67
2022-10-11T05:29:34.275Z,20.70
2022-10-11T05:32:36.957Z,20.72
2022-10-11T08:07:02.561Z,19.90
2022-10-11T08:10:05.622Z,19.75
2022-10-11T08:13:08.329Z,19.77
2022-10-11T08:16:12.359Z,19.82
2022-10-11T08:19:15.077Z,19.90
2022-10-11T08:22:19.286Z,19.89
2022-10-11T08:25:21.983Z,19.95
2022-10-11T08:28:24.688Z,19.98
2022-10-11T08:31:27.502Z,19.78
2022-10-11T08:34:30.216Z,19.76
2022-10-11T08:37:34.816Z,19.73
2022-10-11T08:40:37.723Z,19.74
2022-10-11T08:43:45.746Z,19.68
2022-10-11T08:46:50.666Z,19.69
2022-10-11T08:49:53.467Z,19.70
2022-10-11T08:52:58.876Z,19.71
2022-10-11T08:56:02.406Z,19.70
2022-10-11T08:59:09.035Z,19.68
2022-10-11T09:02:17.773Z,19.68
2022-10-11T09:05:21.005Z,19.71
2022-10-11T09:08:30.120Z,19.73
2022-10-11T09:11:38.493Z,19.69
2022-10-11T09:14:49.717Z,19.69
2022-10-11T09:18:04.390Z,19.64
2022-10-11T09:21:14.371Z,19.68
2022-10-11T09:24:30.262Z,19.66
2022-10-11T09:28:00.865Z,19.80
2022-10-11T09:31:02.975Z,19.85
2022-10-11T09:34:12.174Z,19.94
2022-10-11T09:37:23.314Z,20.02
2022-10-11T09:40:34.963Z,20.08
2022-10-11T09:43:39.641Z,20.12
2022-10-11T09:46:43.681Z,20.19
2022-10-11T09:49:48.939Z,20.20
2022-10-11T09:52:52.656Z,20.21
2022-10-11T09:56:04.153Z,20.23
2022-10-11T09:59:08.640Z,20.19
2022-10-11T10:02:29.175Z,20.26
2022-10-11T10:05:33.511Z,20.30
2022-10-11T10:08:38.785Z,20.35
2022-10-11T10:11:43.830Z,20.45
2022-10-11T10:14:55.481Z,20.40
2022-10-11T10:17:59.108Z,20.44
2022-10-11T10:21:02.126Z,20.45
2022-10-11T10:24:06.889Z,20.44
2022-10-11T10:27:17.409Z,20.47
2022-10-11T10:30:20.856Z,20.45
2022-10-11T10:33:24.503Z,20.45
2022-10-11T10:36:29.095Z,20.51
2022-10-11T10:39:36.570Z,20.48
2022-10-11T10:42:40.713Z,20.42
2022-10-11T10:46:07.388Z,20.56
2022-10-11T10:52:51.161Z,20.66
2022-10-11T10:55:59.648Z,20.60
2022-10-11T10:59:13.314Z,20.65
2022-10-11T11:02:46.075Z,20.63
2022-10-11T11:05:46.536Z,20.64
2022-10-11T11:08:58.356Z,20.61
2022-10-11T11:12:07.099Z,20.62
2022-10-11T11:15:13.296Z,20.63
2022-10-11T11:18:25.890Z,20.62
2022-10-11T11:21:34.955Z,20.65
2022-10-11T11:24:48.110Z,20.67
2022-10-11T11:27:55.645Z,20.62
2022-10-11T11:31:04.534Z,20.62
2022-10-11T11:34:13.723Z,20.60
2022-10-11T11:37:25.678Z,20.66
2022-10-11T11:40:34.919Z,20.66
2022-10-11T11:43:39.573Z,20.63
2022-10-11T11:46:45.529Z,20.69
2022-10-11T11:49:51.542Z,20.71
2022-10-11T11:52:57.136Z,20.70
2022-10-11T11:56:01.497Z,20.70
2022-10-11T11:59:07.667Z,20.59
2022-10-11T12:02:25.915Z,20.55
2022-10-11T12:05:30.093Z,20.61
2022-10-11T12:08:34.423Z,20.54
2022-10-11T12:11:47.211Z,20.45
2022-10-11T12:14:49.908Z,20.37
2022-10-11T12:18:14.819Z,19.98
2022-10-11T12:21:23.123Z,20.18
2022-10-11T12:24:25.925Z,20.24
2022-10-11T12:27:39.182Z,20.24
2022-10-11T12:30:53.237Z,20.20
2022-10-11T12:34:18.150Z,20.31
2022-10-11T12:37:39.647Z,20.34
2022-10-11T12:40:43.054Z,20.31
2022-10-11T12:44:09.865Z,20.29
2022-10-11T12:47:28.506Z,20.30
2022-10-11T12:50:41.734Z,20.42
2022-10-11T12:54:14.750Z,20.56
2022-10-11T12:57:34.339Z,20.50
2022-10-11T13:00:43.572Z,20.45
2022-10-11T13:03:49.171Z,20.36
2022-10-11T13:06:54.877Z,20.62
2022-10-11T13:09:57.812Z,20.61
2022-10-11T13:13:04.499Z,20.71
2022-10-11T13:16:10.356Z,20.54
2022-10-11T13:19:14.166Z,20.52
2022-10-11T13:22:20.029Z,20.50
2022-10-11T13:25:24.608Z,20.50
2022-10-11T13:28:27.403Z,20.55
2022-10-11T13:31:30.246Z,20.50
2022-10-11T13:34:35.616Z,20.52
2022-10-11T13:37:43.485Z,20.38
2022-10-11T13:40:50.132Z,20.52
2022-10-11T13:43:54.279Z,20.52
2022-10-11T13:46:57.649Z,20.49
2022-10-11T13:50:04.462Z,20.61
2022-10-11T13:53:23.358Z,20.56
2022-10-11T13:56:26.489Z,20.55
2022-10-11T13:59:29.257Z,20.47
2022-10-11T14:02:33.607Z,20.41
2022-10-11T14:05:37.929Z,20.57
2022-10-11T14:08:45.937Z,20.59
2022-10-11T14:11:48.761Z,20.50
2022-10-11T14:14:51.570Z,20.57
2022-10-11T14:17:54.303Z,20.58
2022-10-11T14:20:57.087Z,20.58
2022-10-11T14:24:06.106Z,20.53
2022-10-11T14:27:12.096Z,20.43
2022-10-11T14:30:31.985Z,20.44
2022-10-11T14:33:35.122Z,20.44
2022-10-11T14:36:37.776Z,20.39
2022-10-11T14:39:42.600Z,20.47
2022-10-11T14:42:45.300Z,20.38
2022-10-11T14:45:48.007Z,20.39
2022-10-11T14:48:55.482Z,20.29
2022-10-11T14:52:00.182Z,20.28
2022-10-11T14:55:04.271Z,20.32
2022-10-11T14:58:07.265Z,20.33
2022-10-11T15:01:11.843Z,20.29
2022-10-11T15:04:14.563Z,20.27
2022-10-11T15:07:17.320Z,20.35
2022-10-11T15:10:23.006Z,20.30
2022-10-11T15:13:25.811Z,20.37
2022-10-11T15:16:28.490Z,20.19
2022-10-11T15:19:31.191Z,20.20
2022-10-11T15:22:33.879Z,20.14
2022-10-11T15:25:38.738Z,20.16
2022-10-11T15:28:41.516Z,20.16
2022-10-11T15:31:44.631Z,20.21
2022-10-11T15:34:47.372Z,20.08
2022-10-11T15:37:52.855Z,20.25
2022-10-11T15:40:56.979Z,20.20
2022-10-11T15:43:59.680Z,20.08
2022-10-11T15:47:02.428Z,20.15
2022-10-11T15:50:05.428Z,20.10
2022-10-11T15:53:08.989Z,20.23
2022-10-11T15:56:16.250Z,20.33
2022-10-11T15:59:18.944Z,20.21
2022-10-11T16:02:21.676Z,20.25
2022-10-11T16:05:25.366Z,20.59
2022-10-11T16:08:30.702Z,20.36
2022-10-11T16:11:34.800Z,20.46
2022-10-11T16:14:37.564Z,20.38
2022-10-11T16:17:40.282Z,20.47
2022-10-11T16:20:44.626Z,20.33
2022-10-11T16:23:47.337Z,20.47
2022-10-11T16:26:54.262Z,20.39
2022-10-11T16:29:57.099Z,20.37
2022-10-11T16:32:59.770Z,20.42
2022-10-11T16:36:28.893Z,20.44
2022-10-11T16:39:31.780Z,20.45
2022-10-11T16:42:39.145Z,20.43
2022-10-11T16:45:41.888Z,20.40
2022-10-11T17:54:22.114Z,19.69
2022-10-11T17:57:25.258Z,19.76
2022-10-11T18:00:27.960Z,19.80
2022-10-11T18:03:30.672Z,19.88
2022-10-11T18:06:34.311Z,19.91
2022-10-11T18:09:38.367Z,19.94
2022-10-11T18:12:41.073Z,19.94
2022-10-11T18:15:43.796Z,19.93
2022-10-11T18:18:46.482Z,19.95
2022-10-11T18:21:49.100Z,20.04
2022-10-11T18:24:53.175Z,20.06
2022-10-11T18:27:55.828Z,20.06
2022-10-11T18:31:00.444Z,20.05
2022-10-11T18:34:03.226Z,20.09
2022-10-11T18:37:05.929Z,20.19
2022-10-11T18:40:10.563Z,20.10
2022-10-11T18:43:13.335Z,20.11
2022-10-11T18:46:16.015Z,20.22
2022-10-11T18:49:18.730Z,20.25
2022-10-11T18:52:21.482Z,20.21
2022-10-11T18:55:25.551Z,20.21
2022-10-11T18:58:32.639Z,20.16
2022-10-11T19:01:38.015Z,20.19
2022-10-11T19:04:41.170Z,20.19
2022-10-11T19:07:44.419Z,20.18
2022-10-11T19:10:48.615Z,20.17
2022-10-11T19:13:56.395Z,20.19
2022-10-11T19:16:59.366Z,20.18
2022-10-11T19:20:02.527Z,20.16
2022-10-11T19:23:05.492Z,20.17
2022-10-11T19:26:13.318Z,20.19
2022-10-11T19:29:18.703Z,20.19
2022-10-11T19:32:21.691Z,20.15
2022-10-11T19:35:24.469Z,20.19
2022-10-11T19:38:27.245Z,20.20
2022-10-11T19:41:31.394Z,20.23
2022-10-11T19:44:38.719Z,20.20
2022-10-11T19:47:42.415Z,20.21
2022-10-11T19:50:45.094Z,20.25
2022-10-11T19:53:47.946Z,20.23
2022-10-11T19:56:52.591Z,20.24
2022-10-11T19:59:58.135Z,20.22
2022-10-11T20:03:01.270Z,20.23
2022-10-11T20:06:04.899Z,20.24
2022-10-11T20:09:28.384Z,20.26
2022-10-11T20:12:32.268Z,20.36
2022-10-11T20:15:37.672Z,20.42
2022-10-11T20:18:40.679Z,20.29
2022-10-11T20:21:44.012Z,20.29
2022-10-11T20:24:46.664Z,20.31
2022-10-11T20:27:50.679Z,20.26
2022-10-11T20:30:53.409Z,20.27
2022-10-11T20:33:57.213Z,20.26
2022-10-11T20:36:59.819Z,20.25
2022-10-11T20:40:02.544Z,20.23
2022-10-11T20:43:06.972Z,20.24
2022-10-11T20:46:10.687Z,20.27
2022-10-11T20:49:13.635Z,20.25
2022-10-11T20:52:16.262Z,20.24
2022-10-11T20:55:18.977Z,20.23
2022-10-11T20:58:23.398Z,20.22
2022-10-11T21:01:27.365Z,20.24
2022-10-11T21:04:30.404Z,20.21
2022-10-11T21:07:33.296Z,20.22
2022-10-11T21:10:36.534Z,20.27
2022-10-11T21:13:40.614Z,20.27
2022-10-11T21:16:43.261Z,20.27
2022-10-11T21:19:45.928Z,20.23
2022-10-11T21:22:48.643Z,20.25
2022-10-11T21:25:51.307Z,20.22
2022-10-11T21:28:55.431Z,20.22
2022-10-11T21:31:58.114Z,20.18
2022-10-11T21:35:01.042Z,20.19
2022-10-11T21:38:03.662Z,20.21
2022-10-11T21:41:06.874Z,20.18
2022-10-11T21:44:11.040Z,20.22
2022-10-11T21:47:13.690Z,20.18
2022-10-11T21:50:16.416Z,20.18
2022-10-11T21:53:19.056Z,20.19
2022-10-11T21:56:21.837Z,20.17
2022-10-11T21:59:25.929Z,20.18
2022-10-11T22:02:28.622Z,20.16
2022-10-11T22:05:31.392Z,20.18
2022-10-11T22:08:34.139Z,20.17
2022-10-11T22:11:36.980Z,20.14
2022-10-11T22:14:41.071Z,20.15
2022-10-11T22:17:43.709Z,20.15
2022-10-11T22:20:46.618Z,20.15
2022-10-11T22:23:50.145Z,20.14
2022-10-11T22:26:52.762Z,20.18
2022-10-11T22:29:56.827Z,20.17
2022-10-11T22:32:59.532Z,20.15
2022-10-11T22:36:02.975Z,20.16
2022-10-11T22:39:08.180Z,20.14
2022-10-11T22:42:10.908Z,20.13
2022-10-11T22:45:15.002Z,20.15
2022-10-11T22:48:17.744Z,20.11
2022-10-11T22:51:20.420Z,20.14
2022-10-11T22:54:23.141Z,20.11
2022-10-11T22:57:25.813Z,20.14
2022-10-11T23:00:29.914Z,20.11
2022-10-11T23:03:32.659Z,20.12
2022-10-11T23:06:35.342Z,20.10
2022-10-11T23:09:38.061Z,20.16
2022-10-11T23:12:41.724Z,20.10
2022-10-11T23:15:46.137Z,20.08
2022-10-11T23:18:48.971Z,20.10
2022-10-11T23:21:51.625Z,20.07
2022-10-11T23:24:54.434Z,20.07
2022-10-11T23:27:57.119Z,20.07
2022-10-11T23:31:01.227Z,20.05
2022-10-11T23:34:03.912Z,20.05
2022-10-11T23:37:06.826Z,20.04
2022-10-11T23:40:09.985Z,20.05
2022-10-11T23:43:12.704Z,20.03
2022-10-11T23:46:16.734Z,20.04
2022-10-11T23:49:19.415Z,20.01
2022-10-11T23:52:22.102Z,20.03
2022-10-11T23:55:24.768Z,20.04
2022-10-11T23:58:27.438Z,20.02
